Airfield :
LOGIN :

Register | Disclaimer

   EN    FR    IT 

 










Legend :    VFR   Marginal VFR   IFR   Intensive IFR   Very Intensive IFR
Visi :
Ceiling :
>= 8 km
>= 3000ft
5 to 8 km
1000 to 3000 ft
1500m to 5 km
500 to 1000 ft
800 to 1500m
200 to 500 ft
< 800m
< 200 ft
Symbols :   Thunderstorms  Fog  Heavy snow  Heavy precipitations  Wind > 20 kt
SIGMETs :     Misc.  Thunderstorms  Icing  Turbulence  Mountain Waves  Volcanic Ashes






- Airport Elevation : 13 ft
- IATA code : LYX


EGMD - Lydd

CURRENT METAR :
  • 160450Z AUTO 23012KT 9999 BKN007/// BKN010/// BKN023/// 11/10 Q1000

EXPIRED METARs :
  • 160420Z AUTO 22011KT 9999 BKN008/// BKN013/// 11/10 Q1000
  • 160350Z AUTO 23009KT 9999 BKN008/// BKN012/// 11/10 Q1000
  • 160320Z AUTO 23009KT 9999 FEW006/// BKN010/// BKN014/// 11/10 Q1000
  • 160250Z AUTO 23011KT 9999 FEW006/// SCT010/// BKN023/// 11/10 Q1000
  • 160220Z AUTO 23010KT 9999 SCT007/// SCT011/// BKN016/// 11/10 Q1000

TAF TAF EGMD
Valid from the 16 at 03:00 until the 16 at 12:00 UTC


160154Z 1603/1612 24012KT 9999 SCT012
TEMPO 1603/1606 7000 SHRA BKN008
TEMPO 1606/1612 7000 SHRA
PROB30
TEMPO 1606/1612 4000 +TSRAGS BKN014 BKN020CB
ATIS : +44 1797 322 422



MET'MAP, your aeronautical weather chart ! - Copyright ORBIFLY December 2007 - Disclaimer

ORBIFLY MET'MAP TEAM :

Programming & Development : Alexandra Zaïnal
Concept & original design : Baudouin d'Aumeries
Assistance for programming : Marc-Olivier Méhu
Technical & hardware support : Manuel Goepfert

Contact : metmap@orbifly.com




SOURCES & CREDITS :

   NOAA